createdAt,value
2022-11-17T00:01:17.532Z,1.95
2022-11-17T00:03:45.329Z,2.35
2022-11-17T00:06:13.086Z,2.00
2022-11-17T00:08:40.874Z,2.15
2022-11-17T00:11:08.683Z,2.22
2022-11-17T00:13:53.843Z,2.08
2022-11-17T00:16:21.621Z,2.00
2022-11-17T00:19:06.753Z,2.00
2022-11-17T00:21:34.592Z,2.47
2022-11-17T00:24:02.429Z,2.10
2022-11-17T00:26:30.229Z,1.90
2022-11-17T00:28:58.017Z,1.77
2022-11-17T00:31:43.223Z,1.80
2022-11-17T00:34:11.136Z,2.20
2022-11-17T00:36:38.933Z,1.73
2022-11-17T00:39:06.910Z,1.90
2022-11-17T00:41:34.727Z,2.28
2022-11-17T00:44:02.483Z,1.70
2022-11-17T00:46:30.319Z,1.92
2022-11-17T00:48:58.211Z,1.77
2022-11-17T00:51:26.323Z,1.80
2022-11-17T00:53:54.191Z,3.15
2022-11-17T00:56:22.033Z,1.90
2022-11-17T00:58:49.891Z,1.60
2022-11-17T01:01:17.815Z,1.75
2022-11-17T01:03:45.615Z,1.58
2022-11-17T01:06:13.384Z,1.80
2022-11-17T01:08:41.132Z,1.60
2022-11-17T01:11:09.027Z,1.38
2022-11-17T01:13:37.187Z,1.70
2022-11-17T01:16:05.188Z,1.67
2022-11-17T01:18:33.047Z,1.70
2022-11-17T01:21:00.846Z,1.60
2022-11-17T01:23:28.686Z,1.33
2022-11-17T01:25:56.664Z,1.70
2022-11-17T01:28:24.461Z,3.05
2022-11-17T01:30:52.504Z,1.60
2022-11-17T01:33:20.284Z,1.40
2022-11-17T01:35:48.031Z,1.25
2022-11-17T01:38:15.865Z,1.80
2022-11-17T01:40:43.946Z,1.60
2022-11-17T01:43:11.736Z,1.50
2022-11-17T01:45:39.640Z,1.50
2022-11-17T01:48:07.416Z,1.58
2022-11-17T01:50:35.147Z,1.70
2022-11-17T01:53:03.116Z,1.48
2022-11-17T01:55:31.045Z,1.70
2022-11-17T01:57:58.840Z,1.63
2022-11-17T02:00:26.566Z,1.70
2022-11-17T02:02:54.346Z,1.70
2022-11-17T02:05:22.096Z,1.20
2022-11-17T02:07:49.912Z,1.30
2022-11-17T02:10:17.914Z,1.40
2022-11-17T02:12:45.665Z,1.67
2022-11-17T02:15:13.497Z,1.52
2022-11-17T02:17:41.250Z,1.20
2022-11-17T02:20:09.292Z,1.60
2022-11-17T02:22:37.075Z,1.30
2022-11-17T02:25:04.909Z,1.40
2022-11-17T02:27:32.716Z,1.50
2022-11-17T02:30:00.472Z,1.40
2022-11-17T02:32:28.463Z,1.30
2022-11-17T02:34:56.289Z,1.40
2022-11-17T02:37:24.067Z,1.40
2022-11-17T02:39:51.813Z,1.20
2022-11-17T02:42:19.707Z,1.42
2022-11-17T02:44:46.453Z,1.55
2022-11-17T02:47:14.264Z,1.50
2022-11-17T02:49:42.261Z,1.50
2022-11-17T02:52:10.027Z,1.30
2022-11-17T02:54:37.960Z,1.52
2022-11-17T02:57:05.740Z,1.38
2022-11-17T02:59:33.518Z,1.50
2022-11-17T03:02:01.342Z,1.50
2022-11-17T03:04:29.322Z,1.50
2022-11-17T03:06:57.160Z,1.48
2022-11-17T03:09:25.176Z,1.33
2022-11-17T03:11:52.973Z,1.48
2022-11-17T03:14:20.741Z,1.50
2022-11-17T03:16:48.544Z,1.38
2022-11-17T03:19:16.303Z,1.48
2022-11-17T03:21:44.222Z,1.45
2022-11-17T03:24:12.647Z,1.52
2022-11-17T03:26:40.403Z,1.10
2022-11-17T03:29:08.339Z,1.40
2022-11-17T03:31:36.159Z,1.13
2022-11-17T03:34:03.975Z,1.65
2022-11-17T03:36:31.925Z,1.45
2022-11-17T03:39:00.028Z,1.50
2022-11-17T03:41:27.820Z,1.30
2022-11-17T03:43:55.768Z,1.50
2022-11-17T03:46:23.526Z,1.30
2022-11-17T03:48:51.434Z,1.63
2022-11-17T03:51:19.182Z,1.40
2022-11-17T03:53:47.030Z,1.30
2022-11-17T03:56:14.865Z,1.15
2022-11-17T03:58:42.556Z,1.50
2022-11-17T04:01:10.384Z,3.47
2022-11-17T04:03:38.467Z,3.50
2022-11-17T04:06:06.356Z,1.52
2022-11-17T04:08:34.130Z,2.45
2022-11-17T04:11:19.495Z,1.48
2022-11-17T04:14:05.091Z,1.50
2022-11-17T04:16:32.920Z,3.30
2022-11-17T04:19:00.686Z,3.35
2022-11-17T04:21:28.445Z,2.70
2022-11-17T04:23:57.941Z,1.42
2022-11-17T04:26:43.335Z,1.95
2022-11-17T04:29:11.117Z,3.35
2022-11-17T04:31:38.881Z,1.17
2022-11-17T04:34:06.672Z,1.40
2022-11-17T04:36:34.452Z,1.33
2022-11-17T04:39:02.280Z,1.30
2022-11-17T04:41:47.397Z,1.73
2022-11-17T04:44:21.345Z,2.03
2022-11-17T04:46:49.095Z,2.35
2022-11-17T04:49:16.888Z,1.40
2022-11-17T04:51:44.712Z,1.33
2022-11-17T04:54:12.505Z,1.40
2022-11-17T04:56:40.215Z,1.40
2022-11-17T04:59:07.983Z,1.70
2022-11-17T05:01:35.730Z,2.55
2022-11-17T05:04:03.623Z,3.72
2022-11-17T05:06:32.122Z,3.30
2022-11-17T05:08:59.898Z,2.83
2022-11-17T05:11:45.337Z,2.28
2022-11-17T05:14:13.116Z,3.80
2022-11-17T05:16:58.430Z,2.55
2022-11-17T05:19:26.217Z,3.25
2022-11-17T05:21:53.995Z,4.90
2022-11-17T05:24:20.739Z,2.83
2022-11-17T05:26:48.614Z,4.68
2022-11-17T05:29:16.540Z,1.50
2022-11-17T05:31:44.354Z,1.55
2022-11-17T05:34:12.495Z,1.63
2022-11-17T05:36:40.320Z,2.10
2022-11-17T05:39:08.119Z,1.52
2022-11-17T05:41:37.193Z,2.25
2022-11-17T05:44:05.006Z,2.63
2022-11-17T05:46:32.785Z,1.95
2022-11-17T05:49:00.537Z,2.15
2022-11-17T05:51:28.301Z,1.85
2022-11-17T05:53:56.075Z,1.60
2022-11-17T05:56:23.840Z,1.45
2022-11-17T05:58:51.567Z,1.35
2022-11-17T06:01:19.294Z,1.75
2022-11-17T06:03:47.150Z,2.00
2022-11-17T06:06:15.024Z,2.17
2022-11-17T06:08:42.819Z,1.40
2022-11-17T06:11:10.616Z,2.20
2022-11-17T06:13:38.546Z,1.48
2022-11-17T06:16:06.454Z,1.67
2022-11-17T06:18:34.275Z,1.15
2022-11-17T06:21:02.060Z,1.50
2022-11-17T06:23:29.789Z,1.50
2022-11-17T06:25:57.592Z,1.50
2022-11-17T06:28:25.356Z,1.50
2022-11-17T06:30:54.233Z,1.30
2022-11-17T06:33:22.036Z,1.40
2022-11-17T06:35:49.940Z,1.98
2022-11-17T06:38:17.737Z,2.00
2022-11-17T06:40:45.484Z,1.35
2022-11-17T06:43:13.275Z,2.10
2022-11-17T06:45:41.309Z,1.48
2022-11-17T06:48:09.122Z,2.03
2022-11-17T06:50:36.915Z,1.63
2022-11-17T06:53:04.885Z,1.50
2022-11-17T06:55:32.707Z,1.23
2022-11-17T06:58:01.403Z,1.90
2022-11-17T07:00:29.524Z,2.40
2022-11-17T07:02:57.461Z,1.45
2022-11-17T07:05:25.243Z,1.50
2022-11-17T07:07:53.043Z,1.30
2022-11-17T07:10:20.923Z,1.55
2022-11-17T07:12:48.704Z,1.45
2022-11-17T07:15:16.498Z,1.90
2022-11-17T07:17:44.251Z,1.40
2022-11-17T07:20:12.119Z,1.77
2022-11-17T07:22:41.197Z,1.67
2022-11-17T07:25:08.988Z,1.50
2022-11-17T07:27:36.799Z,2.17
2022-11-17T07:30:04.552Z,2.13
2022-11-17T07:32:32.331Z,1.38
2022-11-17T07:35:02.067Z,1.50
2022-11-17T07:37:33.477Z,1.10
2022-11-17T07:40:01.494Z,1.20
2022-11-17T07:42:29.290Z,1.50
2022-11-17T07:44:57.103Z,1.60
2022-11-17T07:47:24.937Z,1.70
2022-11-17T07:49:52.827Z,1.42
2022-11-17T07:52:20.606Z,1.55
2022-11-17T07:54:48.407Z,1.75
2022-11-17T07:57:16.228Z,1.45
2022-11-17T07:59:44.024Z,1.55
2022-11-17T08:02:11.822Z,1.70
2022-11-17T08:04:39.782Z,1.50
2022-11-17T08:07:07.576Z,1.70
2022-11-17T08:09:35.732Z,1.38
2022-11-17T08:12:03.489Z,1.75
2022-11-17T08:14:31.340Z,1.67
2022-11-17T08:16:59.084Z,1.60
2022-11-17T08:19:26.920Z,1.40
2022-11-17T08:21:54.690Z,1.65
2022-11-17T08:24:22.491Z,1.75
2022-11-17T08:26:50.262Z,1.10
2022-11-17T08:29:18.309Z,1.38
2022-11-17T08:31:47.825Z,1.50
2022-11-17T08:34:15.642Z,1.35
2022-11-17T08:36:43.405Z,1.30
2022-11-17T08:39:11.393Z,1.48
2022-11-17T08:41:39.179Z,1.50
2022-11-17T08:44:06.977Z,1.52
2022-11-17T08:46:34.836Z,2.10
2022-11-17T08:49:03.091Z,1.60
2022-11-17T08:51:30.843Z,1.50
2022-11-17T08:53:58.653Z,1.35
2022-11-17T08:56:26.437Z,1.50
2022-11-17T08:58:54.178Z,1.50
2022-11-17T09:01:22.010Z,1.27
2022-11-17T09:03:49.809Z,1.60
2022-11-17T09:06:17.555Z,2.65
2022-11-17T09:08:47.018Z,1.88
2022-11-17T09:11:16.618Z,1.45
2022-11-17T09:13:45.719Z,1.50
2022-11-17T09:16:13.771Z,1.50
2022-11-17T09:18:41.864Z,1.67
2022-11-17T09:21:09.908Z,1.50
2022-11-17T09:23:38.037Z,1.60
2022-11-17T09:26:06.182Z,1.60
2022-11-17T09:28:34.400Z,2.75
2022-11-17T09:31:02.759Z,1.45
2022-11-17T09:33:30.601Z,1.40
2022-11-17T09:35:58.492Z,1.67
2022-11-17T09:38:26.256Z,1.63
2022-11-17T09:40:56.027Z,1.63
2022-11-17T09:43:23.818Z,1.60
2022-11-17T09:45:51.628Z,1.40
2022-11-17T09:48:40.130Z,1.60
2022-11-17T09:51:07.143Z,2.58
2022-11-17T09:53:35.234Z,1.60
2022-11-17T09:56:03.490Z,1.60
2022-11-17T09:58:31.299Z,1.40
2022-11-17T10:00:59.062Z,2.47
2022-11-17T10:03:26.852Z,1.67
2022-11-17T10:05:54.691Z,2.08
2022-11-17T10:08:22.451Z,1.95
2022-11-17T10:10:50.448Z,1.50
2022-11-17T10:13:18.297Z,1.58
2022-11-17T10:15:46.094Z,1.23
2022-11-17T10:18:14.466Z,1.75
2022-11-17T10:20:42.227Z,1.40
2022-11-17T10:23:09.976Z,1.50
2022-11-17T10:25:38.215Z,1.75
2022-11-17T10:28:06.031Z,1.40
2022-11-17T10:30:33.757Z,1.52
2022-11-17T10:33:01.873Z,1.50
2022-11-17T10:35:30.428Z,1.50
2022-11-17T10:37:58.182Z,1.38
2022-11-17T10:40:26.313Z,1.17
2022-11-17T10:42:54.200Z,1.40
2022-11-17T10:45:31.407Z,1.45
2022-11-17T10:48:24.301Z,3.65
2022-11-17T10:50:52.509Z,1.85
2022-11-17T10:53:56.968Z,1.60
2022-11-17T10:56:37.745Z,1.67
2022-11-17T10:59:07.796Z,2.20
2022-11-17T11:01:44.821Z,1.85
2022-11-17T11:04:37.345Z,2.13
2022-11-17T11:09:56.360Z,1.60
2022-11-17T11:12:31.515Z,1.65
2022-11-17T11:15:00.015Z,1.85
2022-11-17T11:17:27.942Z,2.25
2022-11-17T11:19:55.815Z,1.80
2022-11-17T11:22:23.638Z,1.60
2022-11-17T11:24:51.533Z,1.50
2022-11-17T11:27:19.336Z,1.77
2022-11-17T11:29:47.165Z,1.85
2022-11-17T11:32:16.747Z,1.77
2022-11-17T11:34:44.581Z,1.50
2022-11-17T11:37:12.511Z,1.50
2022-11-17T11:39:40.346Z,1.70
2022-11-17T11:42:08.494Z,1.60
2022-11-17T11:44:36.346Z,1.70
2022-11-17T11:47:04.208Z,1.55
2022-11-17T11:49:32.032Z,1.70
2022-11-17T11:51:59.891Z,1.73
2022-11-17T11:54:27.776Z,1.67
2022-11-17T11:56:55.660Z,2.17
2022-11-17T12:01:51.443Z,1.60
2022-11-17T12:04:19.334Z,1.80
2022-11-17T12:06:47.511Z,1.60
2022-11-17T12:09:15.333Z,1.55
2022-11-17T12:12:01.715Z,1.48
2022-11-17T12:14:29.562Z,1.63
2022-11-17T12:16:57.492Z,1.63
2022-11-17T12:19:25.357Z,1.60
2022-11-17T12:21:53.364Z,1.73
2022-11-17T12:24:21.276Z,1.58
2022-11-17T12:26:49.153Z,1.50
2022-11-17T12:29:16.965Z,1.83
2022-11-17T12:31:44.860Z,1.70
2022-11-17T12:34:13.098Z,1.70
2022-11-17T12:36:41.354Z,1.63
2022-11-17T12:39:09.517Z,1.70
2022-11-17T12:41:37.322Z,1.45
2022-11-17T12:44:05.109Z,1.50
2022-11-17T12:46:33.376Z,1.60
2022-11-17T12:49:01.447Z,1.60
2022-11-17T12:51:29.345Z,1.70
2022-11-17T12:53:57.744Z,1.60
2022-11-17T12:56:25.597Z,1.48
2022-11-17T12:58:53.416Z,1.75
2022-11-17T13:01:21.306Z,1.70
2022-11-17T13:03:49.479Z,1.63
2022-11-17T13:06:34.984Z,1.77
2022-11-17T13:09:04.161Z,1.65
2022-11-17T13:11:31.994Z,1.70
2022-11-17T13:13:59.844Z,1.88
2022-11-17T13:16:27.741Z,2.03
2022-11-17T13:18:56.496Z,2.00
2022-11-17T13:21:24.354Z,1.77
2022-11-17T13:23:52.183Z,2.05
2022-11-17T13:26:20.047Z,1.88
2022-11-17T13:28:49.739Z,1.70
2022-11-17T13:31:17.617Z,1.50
2022-11-17T13:33:45.625Z,1.60
2022-11-17T13:36:13.582Z,2.10
2022-11-17T13:38:41.452Z,1.70
2022-11-17T13:41:10.291Z,1.80
2022-11-17T13:43:39.277Z,1.70
2022-11-17T13:46:07.601Z,2.42
2022-11-17T13:48:35.596Z,1.88
2022-11-17T13:51:03.486Z,1.70
2022-11-17T13:53:33.072Z,1.80
2022-11-17T13:56:00.935Z,1.73
2022-11-17T13:58:28.955Z,1.90
2022-11-17T14:00:57.261Z,1.50
2022-11-17T14:03:25.242Z,1.60
2022-11-17T14:05:53.112Z,1.85
2022-11-17T14:08:20.911Z,1.80
2022-11-17T14:10:48.950Z,1.83
2022-11-17T14:13:16.747Z,1.65
2022-11-17T14:15:47.896Z,1.80
2022-11-17T14:18:18.493Z,2.28
2022-11-17T14:20:47.001Z,1.80
2022-11-17T14:23:15.517Z,1.95
2022-11-17T14:25:43.331Z,1.60
2022-11-17T14:28:11.233Z,1.75
2022-11-17T14:30:39.138Z,1.77
2022-11-17T14:33:13.158Z,1.60
2022-11-17T14:35:41.624Z,1.70
2022-11-17T14:38:09.441Z,1.90
2022-11-17T14:40:37.437Z,2.00
2022-11-17T14:43:05.304Z,1.90
2022-11-17T14:45:35.342Z,1.52
2022-11-17T14:48:04.162Z,1.50
2022-11-17T14:50:32.044Z,1.38
2022-11-17T14:52:59.971Z,1.20
2022-11-17T14:55:27.883Z,2.15
2022-11-17T14:57:56.003Z,1.40
2022-11-17T15:00:23.832Z,1.30
2022-11-17T15:02:51.693Z,1.50
2022-11-17T15:05:19.560Z,0.95
2022-11-17T15:07:47.432Z,1.20
2022-11-17T15:10:15.291Z,1.00
2022-11-17T15:12:43.154Z,1.00
2022-11-17T15:15:11.145Z,1.05
2022-11-17T15:17:39.013Z,1.15
2022-11-17T15:20:07.185Z,0.98
2022-11-17T15:22:35.081Z,1.30
2022-11-17T15:25:03.075Z,1.95
2022-11-17T15:27:31.041Z,1.10
2022-11-17T15:29:58.922Z,1.20
2022-11-17T15:32:26.915Z,1.30
2022-11-17T15:34:54.832Z,1.13
2022-11-17T15:37:22.709Z,1.33
2022-11-17T15:39:50.569Z,1.40
2022-11-17T15:42:18.587Z,1.30
2022-11-17T15:44:47.985Z,1.70
2022-11-17T15:47:16.077Z,1.30
2022-11-17T15:49:43.895Z,1.50
2022-11-17T15:52:11.725Z,1.35
2022-11-17T15:54:39.621Z,1.38
2022-11-17T15:57:07.476Z,1.52
2022-11-17T15:59:35.370Z,2.47
2022-11-17T16:02:03.238Z,1.30
2022-11-17T16:04:31.145Z,1.52
2022-11-17T16:06:59.865Z,1.48
2022-11-17T16:09:27.765Z,1.60
2022-11-17T16:11:55.718Z,1.50
2022-11-17T16:14:23.665Z,1.48
2022-11-17T16:16:51.527Z,2.38
2022-11-17T16:19:19.507Z,1.50
2022-11-17T16:21:47.428Z,1.77
2022-11-17T16:24:15.330Z,1.38
2022-11-17T16:26:44.588Z,1.60
2022-11-17T16:29:12.370Z,1.40
2022-11-17T16:31:40.581Z,1.58
2022-11-17T16:34:08.425Z,1.67
2022-11-17T16:36:37.110Z,1.73
2022-11-17T16:39:05.052Z,1.52
2022-11-17T16:41:32.919Z,1.80
2022-11-17T16:44:00.957Z,1.70
2022-11-17T16:49:15.165Z,1.52
2022-11-17T16:51:43.186Z,1.88
2022-11-17T16:54:11.329Z,1.55
2022-11-17T16:56:39.238Z,1.50
2022-11-17T16:59:07.543Z,1.50
2022-11-17T17:01:35.628Z,2.45
2022-11-17T17:04:03.463Z,1.63
2022-11-17T17:06:31.194Z,1.80
2022-11-17T17:08:59.057Z,1.73
2022-11-17T17:11:27.443Z,2.40
2022-11-17T17:13:56.390Z,1.52
2022-11-17T17:16:24.152Z,2.10
2022-11-17T17:18:51.930Z,1.60
2022-11-17T17:21:19.938Z,1.83
2022-11-17T17:23:47.637Z,2.72
2022-11-17T17:26:16.936Z,2.03
2022-11-17T17:28:44.993Z,2.70
2022-11-17T17:31:15.478Z,1.83
2022-11-17T17:33:47.482Z,1.70
2022-11-17T17:36:15.255Z,1.75
2022-11-17T17:38:43.167Z,1.70
2022-11-17T17:41:11.284Z,1.67
2022-11-17T17:43:39.004Z,2.00
2022-11-17T17:46:09.413Z,1.73
2022-11-17T17:48:40.621Z,1.75
2022-11-17T17:51:08.384Z,1.88
2022-11-17T17:53:36.363Z,1.60
2022-11-17T17:56:04.121Z,1.60
2022-11-17T17:58:31.977Z,1.60
2022-11-17T18:00:59.732Z,1.40
2022-11-17T18:03:27.765Z,1.38
2022-11-17T18:05:55.579Z,1.35
2022-11-17T18:08:23.692Z,1.60
2022-11-17T18:10:51.739Z,1.45
2022-11-17T18:13:19.537Z,1.67
2022-11-17T18:15:49.826Z,1.55
2022-11-17T18:18:17.612Z,1.55
2022-11-17T18:20:45.472Z,1.45
2022-11-17T18:23:13.224Z,1.80
2022-11-17T18:25:41.009Z,1.67
2022-11-17T18:28:08.841Z,1.80
2022-11-17T18:30:36.646Z,1.67
2022-11-17T18:33:04.617Z,2.58
2022-11-17T18:35:32.638Z,1.90
2022-11-17T18:38:00.411Z,2.00
2022-11-17T18:40:28.401Z,1.83
2022-11-17T18:42:59.882Z,2.05
2022-11-17T18:45:27.583Z,1.92
2022-11-17T18:47:55.316Z,2.08
2022-11-17T18:50:23.390Z,3.03
2022-11-17T18:52:51.244Z,1.80
2022-11-17T18:55:19.191Z,1.77
2022-11-17T18:57:46.904Z,1.73
2022-11-17T19:00:14.707Z,1.77
2022-11-17T19:02:42.733Z,1.85
2022-11-17T19:05:10.509Z,1.95
2022-11-17T19:07:38.363Z,1.90
2022-11-17T19:10:06.155Z,1.75
2022-11-17T19:12:34.289Z,2.05
2022-11-17T19:15:02.233Z,2.08
2022-11-17T19:17:29.980Z,2.15
2022-11-17T19:19:57.692Z,2.67
2022-11-17T19:22:25.460Z,1.90
2022-11-17T19:24:59.289Z,2.03
2022-11-17T19:27:27.133Z,1.80
2022-11-17T19:29:54.859Z,2.30
2022-11-17T19:32:22.727Z,2.30
2022-11-17T19:34:51.856Z,2.33
2022-11-17T19:37:19.693Z,2.20
2022-11-17T19:39:47.650Z,2.35
2022-11-17T19:42:15.427Z,2.30
2022-11-17T19:44:43.358Z,2.13
2022-11-17T19:47:11.106Z,2.30
2022-11-17T19:49:38.831Z,2.17
2022-11-17T19:52:08.160Z,2.33
2022-11-17T19:54:35.897Z,3.03
2022-11-17T19:57:03.628Z,2.35
2022-11-17T19:59:31.463Z,2.20
2022-11-17T20:01:59.225Z,2.22
2022-11-17T20:04:27.183Z,2.50
2022-11-17T20:06:55.376Z,2.20
2022-11-17T20:09:23.175Z,2.40
2022-11-17T20:11:50.877Z,2.33
2022-11-17T20:14:18.661Z,2.30
2022-11-17T20:16:46.374Z,2.50
2022-11-17T20:19:15.030Z,2.38
2022-11-17T20:21:43.073Z,2.05
2022-11-17T20:24:10.894Z,2.50
2022-11-17T20:26:40.993Z,2.75
2022-11-17T20:29:08.760Z,2.58
2022-11-17T20:31:36.431Z,2.40
2022-11-17T20:34:04.214Z,2.53
2022-11-17T20:36:34.027Z,2.30
2022-11-17T20:39:02.007Z,2.45
2022-11-17T20:41:29.723Z,2.53
2022-11-17T20:43:57.532Z,2.40
2022-11-17T20:46:25.258Z,2.55
2022-11-17T20:48:52.994Z,2.40
2022-11-17T20:51:20.942Z,2.47
2022-11-17T20:53:48.707Z,2.50
2022-11-17T20:56:17.146Z,2.50
2022-11-17T20:58:47.571Z,3.05
2022-11-17T21:01:15.609Z,2.85
2022-11-17T21:03:43.490Z,2.42
2022-11-17T21:06:11.233Z,2.28
2022-11-17T21:08:39.077Z,2.40
2022-11-17T21:11:06.863Z,2.42
2022-11-17T21:13:34.900Z,2.75
2022-11-17T21:16:02.640Z,2.47
2022-11-17T21:18:30.412Z,2.72
2022-11-17T21:20:58.492Z,2.78
2022-11-17T21:23:26.192Z,3.30
2022-11-17T21:25:53.932Z,2.78
2022-11-17T21:28:21.672Z,2.60
2022-11-17T21:30:49.651Z,2.67
2022-11-17T21:33:17.493Z,2.72
2022-11-17T21:35:45.513Z,2.65
2022-11-17T21:38:13.935Z,3.55
2022-11-17T21:40:41.619Z,2.70
2022-11-17T21:43:09.524Z,2.75
2022-11-17T21:45:37.965Z,2.65
2022-11-17T21:48:05.734Z,3.13
2022-11-17T21:50:33.532Z,3.03
2022-11-17T21:53:01.503Z,2.72
2022-11-17T21:55:30.002Z,2.50
2022-11-17T21:57:57.672Z,2.47
2022-11-17T22:00:26.067Z,2.75
2022-11-17T22:02:56.835Z,2.30
2022-11-17T22:05:24.618Z,2.58
2022-11-17T22:07:52.328Z,2.50
2022-11-17T22:10:25.912Z,2.78
2022-11-17T22:12:53.605Z,2.55
2022-11-17T22:15:21.427Z,4.25
2022-11-17T22:17:49.738Z,3.03
2022-11-17T22:20:17.485Z,3.13
2022-11-17T22:22:45.483Z,2.60
2022-11-17T22:25:42.948Z,2.30
2022-11-17T22:28:02.015Z,3.33
2022-11-17T22:30:29.756Z,2.67
2022-11-17T22:32:57.512Z,2.80
2022-11-17T22:35:25.325Z,2.53
2022-11-17T22:37:53.075Z,2.72
2022-11-17T22:40:20.832Z,3.28
2022-11-17T22:42:48.609Z,3.00
2022-11-17T22:45:16.518Z,2.97
2022-11-17T22:50:17.476Z,2.60
2022-11-17T22:52:45.214Z,2.67
2022-11-17T22:55:12.946Z,2.60
2022-11-17T22:57:40.711Z,2.70
2022-11-17T23:00:08.448Z,2.78
2022-11-17T23:02:36.222Z,3.03
2022-11-17T23:05:04.089Z,2.85
2022-11-17T23:07:31.889Z,2.70
2022-11-17T23:09:59.656Z,2.97
2022-11-17T23:12:27.407Z,3.22
2022-11-17T23:14:55.113Z,2.88
2022-11-17T23:17:23.011Z,2.97
2022-11-17T23:19:50.787Z,3.20
2022-11-17T23:22:18.748Z,2.97
2022-11-17T23:24:46.592Z,3.03
2022-11-17T23:27:14.341Z,3.05
2022-11-17T23:29:42.143Z,2.88
2022-11-17T23:32:10.038Z,3.10
2022-11-17T23:34:37.765Z,2.72
2022-11-17T23:37:05.500Z,2.88
2022-11-17T23:39:33.456Z,3.00
2022-11-17T23:42:01.190Z,3.25
2022-11-17T23:44:29.012Z,2.90
2022-11-17T23:46:56.868Z,3.10
2022-11-17T23:49:24.614Z,3.13
2022-11-17T23:51:52.371Z,3.30
2022-11-17T23:54:20.147Z,2.90
2022-11-17T23:56:50.512Z,3.38
2022-11-17T23:59:18.673Z,3.28
